createdAt,value
2023-03-05T00:01:53.562Z,1.05
2023-03-05T00:06:56.844Z,1.00
2023-03-05T00:11:59.414Z,0.90
2023-03-05T00:17:02.140Z,1.00
2023-03-05T00:22:04.831Z,1.10
2023-03-05T00:27:07.427Z,0.98
2023-03-05T00:32:10.199Z,1.02
2023-03-05T00:37:12.962Z,1.50
2023-03-05T00:42:15.570Z,1.25
2023-03-05T00:47:19.098Z,4.63
2023-03-05T00:52:21.703Z,1.38
2023-03-05T00:57:24.272Z,1.00
2023-03-05T01:02:26.970Z,1.30
2023-03-05T01:07:29.519Z,0.90
2023-03-05T01:12:32.191Z,1.45
2023-03-05T01:17:34.920Z,1.25
2023-03-05T01:22:37.504Z,1.45
2023-03-05T01:27:40.098Z,0.80
2023-03-05T01:32:43.381Z,0.80
2023-03-05T01:37:46.449Z,0.90
2023-03-05T01:42:58.426Z,1.13
2023-03-05T01:48:01.112Z,0.90
2023-03-05T01:53:07.596Z,1.10
2023-03-05T01:58:13.982Z,1.00
2023-03-05T02:03:17.134Z,0.70
2023-03-05T02:08:22.642Z,1.02
2023-03-05T02:13:28.281Z,1.00
2023-03-05T02:18:31.241Z,1.27
2023-03-05T02:23:37.016Z,1.20
2023-03-05T02:28:47.236Z,1.40
2023-03-05T02:33:54.095Z,1.13
2023-03-05T02:38:59.370Z,1.10
2023-03-05T02:44:03.020Z,1.10
2023-03-05T02:49:06.477Z,0.90
2023-03-05T02:54:09.654Z,1.17
2023-03-05T02:59:13.098Z,1.00
2023-03-05T03:04:16.686Z,1.42
2023-03-05T03:09:19.830Z,1.17
2023-03-05T03:14:23.211Z,1.20
2023-03-05T03:19:26.553Z,1.25
2023-03-05T03:24:31.358Z,1.08
2023-03-05T03:29:48.800Z,1.60
2023-03-05T03:34:51.680Z,1.20
2023-03-05T03:39:58.001Z,1.23
2023-03-05T03:45:04.549Z,1.30
2023-03-05T03:50:13.876Z,1.47
2023-03-05T03:55:16.828Z,1.55
2023-03-05T04:00:19.760Z,1.30
2023-03-05T04:05:23.561Z,1.30
2023-03-05T04:10:29.779Z,0.93
2023-03-05T04:16:04.176Z,1.45
2023-03-05T04:21:12.937Z,1.03
2023-03-05T04:26:18.732Z,0.97
2023-03-05T04:31:31.636Z,1.00
2023-03-05T04:36:37.137Z,1.15
2023-03-05T04:41:39.787Z,1.02
2023-03-05T04:46:46.019Z,1.15
2023-03-05T04:51:54.277Z,0.82
2023-03-05T04:57:04.364Z,0.98
2023-03-05T05:02:10.991Z,0.90
2023-03-05T05:07:13.571Z,1.05
2023-03-05T05:12:16.462Z,1.02
2023-03-05T05:17:19.868Z,1.40
2023-03-05T05:22:24.801Z,0.93
2023-03-05T05:27:28.404Z,1.13
2023-03-05T05:32:33.744Z,1.20
2023-03-05T05:37:39.863Z,1.50
2023-03-05T05:42:43.362Z,0.70
2023-03-05T05:47:46.468Z,0.82
2023-03-05T05:52:52.808Z,0.73
2023-03-05T05:58:09.348Z,0.90
2023-03-05T06:03:16.293Z,1.10
2023-03-05T06:08:44.294Z,0.93
2023-03-05T06:14:05.675Z,1.23
2023-03-05T06:19:15.602Z,0.70
2023-03-05T06:24:28.577Z,0.80
2023-03-05T06:29:35.259Z,1.13
2023-03-05T06:34:45.348Z,0.77
2023-03-05T06:39:50.499Z,0.65
2023-03-05T06:44:53.086Z,0.65
2023-03-05T06:49:56.127Z,1.00
2023-03-05T06:54:58.986Z,0.70
2023-03-05T07:00:01.823Z,1.00
2023-03-05T07:05:07.668Z,0.80
2023-03-05T07:10:11.008Z,1.02
2023-03-05T07:15:15.587Z,1.00
2023-03-05T07:20:18.341Z,1.08
2023-03-05T07:25:22.161Z,1.17
2023-03-05T07:30:25.256Z,1.50
2023-03-05T07:35:28.304Z,1.60
2023-03-05T07:40:32.575Z,1.65
2023-03-05T07:45:35.498Z,1.38
2023-03-05T07:50:38.414Z,2.30
2023-03-05T07:55:45.877Z,2.50
2023-03-05T08:00:48.993Z,3.50
2023-03-05T08:05:52.342Z,3.72
2023-03-05T08:10:55.271Z,4.78
2023-03-05T08:15:57.907Z,6.50
2023-03-05T08:21:01.040Z,5.53
2023-03-05T08:26:12.544Z,6.53
2023-03-05T08:31:18.628Z,5.95
2023-03-05T08:36:22.336Z,5.32
2023-03-05T08:41:25.557Z,5.75
2023-03-05T08:46:28.265Z,7.38
2023-03-05T08:51:31.006Z,6.57
2023-03-05T08:56:35.393Z,7.43
2023-03-05T09:01:38.068Z,6.28
2023-03-05T09:06:40.877Z,7.18
2023-03-05T09:11:43.468Z,10.45
2023-03-05T09:16:46.237Z,8.40
2023-03-05T09:21:48.863Z,6.45
2023-03-05T09:26:51.933Z,5.80
2023-03-05T09:31:55.039Z,7.05
2023-03-05T09:36:57.666Z,6.32
2023-03-05T09:42:27.171Z,6.20
2023-03-05T09:47:47.963Z,7.10
2023-03-05T09:52:57.967Z,6.35
2023-03-05T09:58:12.218Z,7.90
2023-03-05T10:03:42.760Z,7.38
2023-03-05T10:09:22.601Z,6.43
2023-03-05T10:14:31.486Z,6.88
2023-03-05T10:19:37.196Z,5.82
2023-03-05T10:24:48.550Z,6.05
2023-03-05T10:30:06.674Z,6.80
2023-03-05T10:35:37.198Z,6.57
2023-03-05T10:41:06.779Z,6.47
2023-03-05T10:46:16.900Z,6.45
2023-03-05T10:51:44.194Z,6.80
2023-03-05T10:56:47.300Z,7.45
2023-03-05T11:02:08.643Z,7.13
2023-03-05T11:07:17.661Z,7.95
2023-03-05T11:12:22.040Z,8.73
2023-03-05T11:17:30.488Z,7.25
2023-03-05T11:22:36.057Z,7.53
2023-03-05T11:27:47.366Z,7.13
2023-03-05T11:33:08.411Z,6.40
2023-03-05T11:38:27.424Z,5.63
2023-03-05T11:43:34.321Z,6.10
2023-03-05T11:48:39.983Z,5.65
2023-03-05T11:53:45.113Z,6.20
2023-03-05T11:59:07.275Z,6.10
2023-03-05T12:04:10.076Z,6.05
2023-03-05T12:09:23.049Z,5.70
2023-03-05T12:14:44.787Z,6.30
2023-03-05T12:20:06.749Z,6.47
2023-03-05T12:25:32.573Z,5.70
2023-03-05T12:30:35.211Z,5.05
2023-03-05T12:35:41.248Z,6.13
2023-03-05T12:40:44.118Z,5.53
2023-03-05T12:45:46.842Z,4.47
2023-03-05T12:50:51.624Z,4.60
2023-03-05T12:56:13.542Z,5.57
2023-03-05T13:06:34.269Z,5.50
2023-03-05T13:11:39.337Z,5.05
2023-03-05T13:16:42.105Z,4.10
2023-03-05T13:21:44.814Z,4.47
2023-03-05T13:26:47.423Z,4.75
2023-03-05T13:31:54.585Z,4.95
2023-03-05T13:36:57.424Z,4.15
2023-03-05T13:42:19.989Z,4.05
2023-03-05T13:47:24.602Z,3.67
2023-03-05T13:52:33.748Z,4.80
2023-03-05T13:57:38.757Z,7.13
2023-03-05T14:02:44.325Z,6.07
2023-03-05T14:07:51.785Z,4.65
2023-03-05T14:12:55.053Z,3.55
2023-03-05T14:18:12.791Z,3.08
2023-03-05T14:23:36.933Z,2.47
2023-03-05T14:28:39.581Z,3.08
2023-03-05T14:33:42.597Z,2.90
2023-03-05T14:38:45.544Z,3.15
2023-03-05T14:43:48.505Z,2.90
2023-03-05T14:48:51.353Z,3.15
2023-03-05T14:53:55.142Z,3.15
2023-03-05T14:58:57.861Z,3.47
2023-03-05T15:04:01.238Z,3.22
2023-03-05T15:09:05.358Z,3.45
2023-03-05T15:14:07.987Z,3.42
2023-03-05T15:19:13.909Z,3.78
2023-03-05T15:24:16.605Z,3.70
2023-03-05T15:29:19.302Z,4.97
2023-03-05T15:34:21.903Z,4.25
2023-03-05T15:39:27.390Z,4.03
2023-03-05T15:44:30.021Z,3.60
2023-03-05T15:49:33.416Z,4.50
2023-03-05T15:54:37.173Z,4.95
2023-03-05T15:59:40.539Z,4.70
2023-03-05T16:04:43.174Z,6.50
2023-03-05T16:09:49.779Z,5.72
2023-03-05T16:14:52.627Z,8.15
2023-03-05T16:19:56.144Z,11.40
2023-03-05T16:25:01.338Z,6.07
2023-03-05T16:30:07.191Z,5.15
2023-03-05T16:35:12.525Z,4.20
2023-03-05T16:40:15.677Z,4.35
2023-03-05T16:45:18.392Z,4.68
2023-03-05T16:50:21.156Z,4.72
2023-03-05T16:55:23.938Z,4.10
2023-03-05T17:00:26.696Z,4.47
2023-03-05T17:05:29.996Z,5.03
2023-03-05T17:10:33.370Z,4.38
2023-03-05T17:15:36.107Z,4.95
2023-03-05T17:20:38.722Z,4.45
2023-03-05T17:25:41.621Z,5.28
2023-03-05T17:30:44.693Z,5.53
2023-03-05T17:35:47.662Z,5.80
2023-03-05T17:40:50.790Z,5.30
2023-03-05T17:45:53.511Z,5.53
2023-03-05T17:50:56.525Z,9.25
2023-03-05T17:55:59.224Z,7.75
2023-03-05T18:01:02.077Z,7.85
2023-03-05T18:06:05.156Z,6.57
2023-03-05T18:11:07.776Z,6.68
2023-03-05T18:16:12.384Z,7.20
2023-03-05T18:21:19.921Z,8.43
2023-03-05T18:26:22.605Z,8.10
2023-03-05T18:31:28.384Z,9.93
2023-03-05T18:36:31.077Z,8.52
2023-03-05T18:41:33.916Z,8.13
2023-03-05T18:46:36.769Z,8.38
2023-03-05T18:51:41.859Z,8.70
2023-03-05T18:56:44.480Z,8.30
2023-03-05T19:01:47.143Z,8.98
2023-03-05T19:06:49.941Z,9.25
2023-03-05T19:11:52.632Z,9.90
2023-03-05T19:16:55.176Z,10.23
2023-03-05T19:22:00.802Z,10.07
2023-03-05T19:27:10.282Z,11.23
2023-03-05T19:32:17.594Z,11.52
2023-03-05T19:37:20.276Z,10.13
2023-03-05T19:42:23.188Z,40.78
2023-03-05T19:47:26.209Z,16.90
2023-03-05T19:52:28.842Z,11.55
2023-03-05T19:57:31.436Z,11.52
2023-03-05T20:02:34.084Z,10.88
2023-03-05T20:07:36.742Z,10.23
2023-03-05T20:12:39.461Z,9.88
2023-03-05T20:17:45.750Z,10.35
2023-03-05T20:22:48.458Z,9.68
2023-03-05T20:27:52.089Z,8.82
2023-03-05T20:32:54.733Z,8.07
2023-03-05T20:38:20.960Z,9.35
2023-03-05T20:43:24.217Z,8.77
2023-03-05T20:48:29.261Z,8.25
2023-03-05T20:53:31.859Z,8.43
2023-03-05T20:58:34.564Z,7.60
2023-03-05T21:03:38.861Z,31.50
2023-03-05T21:08:41.999Z,8.70
2023-03-05T21:13:45.004Z,6.97
2023-03-05T21:18:48.177Z,6.50
2023-03-05T21:23:50.882Z,5.20
2023-03-05T21:28:53.592Z,6.13
2023-03-05T21:33:56.721Z,6.05
2023-03-05T21:39:00.350Z,6.15
2023-03-05T21:44:04.231Z,6.10
2023-03-05T21:49:07.055Z,5.47
2023-03-05T21:54:09.934Z,5.93
2023-03-05T21:59:12.600Z,6.35
2023-03-05T22:04:15.257Z,6.00
2023-03-05T22:09:17.962Z,5.72
2023-03-05T22:14:20.628Z,5.85
2023-03-05T22:19:23.226Z,5.65
2023-03-05T22:24:25.864Z,5.95
2023-03-05T22:29:28.780Z,5.75
2023-03-05T22:34:31.372Z,5.43
2023-03-05T22:39:34.064Z,5.57
2023-03-05T22:44:36.899Z,5.72
2023-03-05T22:49:39.530Z,5.43
2023-03-05T22:54:42.223Z,4.93
2023-03-05T22:59:44.879Z,4.50
2023-03-05T23:04:49.743Z,4.30
2023-03-05T23:09:58.650Z,4.68
2023-03-05T23:15:03.969Z,4.57
2023-03-05T23:20:11.624Z,4.20
2023-03-05T23:25:16.621Z,4.68
2023-03-05T23:30:20.150Z,4.20
2023-03-05T23:35:29.003Z,4.40
2023-03-05T23:40:34.682Z,4.10
2023-03-05T23:45:37.819Z,4.18
2023-03-05T23:50:42.569Z,3.80
2023-03-05T23:55:45.336Z,3.15
